sensor_id;sensor_type;location;lat;lon;timestamp;temperature;humidity
67279;DHT22;54193;53.746;10.058;2023-03-23T00:02:30;9.69;92.04
67279;DHT22;54193;53.746;10.058;2023-03-23T00:05:20;9.69;91.99
67279;DHT22;54193;53.746;10.058;2023-03-23T00:08:07;9.71;92.16
67279;DHT22;54193;53.746;10.058;2023-03-23T00:10:57;9.71;92.26
67279;DHT22;54193;53.746;10.058;2023-03-23T00:13:44;9.65;92.30
67279;DHT22;54193;53.746;10.058;2023-03-23T00:16:33;9.69;92.32
67279;DHT22;54193;53.746;10.058;2023-03-23T00:19:18;9.68;92.50
67279;DHT22;54193;53.746;10.058;2023-03-23T00:22:04;9.63;92.45
67279;DHT22;54193;53.746;10.058;2023-03-23T00:24:51;9.69;92.71
67279;DHT22;54193;53.746;10.058;2023-03-23T00:27:37;9.72;92.58
67279;DHT22;54193;53.746;10.058;2023-03-23T00:30:23;9.71;92.63
67279;DHT22;54193;53.746;10.058;2023-03-23T00:33:09;9.74;92.75
67279;DHT22;54193;53.746;10.058;2023-03-23T00:35:58;9.75;92.84
67279;DHT22;54193;53.746;10.058;2023-03-23T00:38:43;9.72;93.04
67279;DHT22;54193;53.746;10.058;2023-03-23T00:41:30;9.75;93.13
67279;DHT22;54193;53.746;10.058;2023-03-23T00:44:16;9.72;93.18
67279;DHT22;54193;53.746;10.058;2023-03-23T00:47:02;9.79;93.31
67279;DHT22;54193;53.746;10.058;2023-03-23T00:49:48;9.78;93.29
67279;DHT22;54193;53.746;10.058;2023-03-23T00:52:35;9.79;93.36
67279;DHT22;54193;53.746;10.058;2023-03-23T00:55:21;9.81;93.42
67279;DHT22;54193;53.746;10.058;2023-03-23T00:58:06;9.85;93.51
67279;DHT22;54193;53.746;10.058;2023-03-23T01:00:53;9.88;93.53
67279;DHT22;54193;53.746;10.058;2023-03-23T01:03:39;9.83;93.49
67279;DHT22;54193;53.746;10.058;2023-03-23T01:06:24;9.85;93.52
67279;DHT22;54193;53.746;10.058;2023-03-23T01:09:13;9.82;93.61
67279;DHT22;54193;53.746;10.058;2023-03-23T01:12:00;9.85;93.67
67279;DHT22;54193;53.746;10.058;2023-03-23T01:14:45;9.89;93.80
67279;DHT22;54193;53.746;10.058;2023-03-23T01:17:33;9.89;93.57
67279;DHT22;54193;53.746;10.058;2023-03-23T01:20:18;9.85;93.62
67279;DHT22;54193;53.746;10.058;2023-03-23T01:23:04;9.85;93.63
67279;DHT22;54193;53.746;10.058;2023-03-23T01:25:50;9.83;93.71
67279;DHT22;54193;53.746;10.058;2023-03-23T01:28:38;9.83;93.74
67279;DHT22;54193;53.746;10.058;2023-03-23T01:31:25;9.82;93.71
67279;DHT22;54193;53.746;10.058;2023-03-23T01:34:11;9.82;93.80
67279;DHT22;54193;53.746;10.058;2023-03-23T01:36:57;9.83;93.76
67279;DHT22;54193;53.746;10.058;2023-03-23T01:39:42;9.89;93.83
67279;DHT22;54193;53.746;10.058;2023-03-23T01:42:34;9.88;93.68
67279;DHT22;54193;53.746;10.058;2023-03-23T01:51:06;9.92;93.67
67279;DHT22;54193;53.746;10.058;2023-03-23T01:54:01;9.92;93.67
67279;DHT22;54193;53.746;10.058;2023-03-23T01:56:53;9.93;93.68
67279;DHT22;54193;53.746;10.058;2023-03-23T01:59:45;9.95;93.62
67279;DHT22;54193;53.746;10.058;2023-03-23T02:02:34;9.96;93.55
67279;DHT22;54193;53.746;10.058;2023-03-23T02:05:29;9.99;93.61
67279;DHT22;54193;53.746;10.058;2023-03-23T02:08:19;10.00;93.65
67279;DHT22;54193;53.746;10.058;2023-03-23T02:11:23;10.00;93.60
67279;DHT22;54193;53.746;10.058;2023-03-23T02:14:08;9.98;93.65
67279;DHT22;54193;53.746;10.058;2023-03-23T02:17:17;9.98;93.70
67279;DHT22;54193;53.746;10.058;2023-03-23T02:25:58;10.00;93.71
67279;DHT22;54193;53.746;10.058;2023-03-23T02:32:08;10.07;93.71
67279;DHT22;54193;53.746;10.058;2023-03-23T02:34:59;10.06;93.79
67279;DHT22;54193;53.746;10.058;2023-03-23T02:37:49;10.03;93.75
67279;DHT22;54193;53.746;10.058;2023-03-23T02:40:40;10.05;93.68
67279;DHT22;54193;53.746;10.058;2023-03-23T02:43:31;10.09;93.78
67279;DHT22;54193;53.746;10.058;2023-03-23T02:46:19;10.07;93.78
67279;DHT22;54193;53.746;10.058;2023-03-23T02:49:07;10.05;93.75
67279;DHT22;54193;53.746;10.058;2023-03-23T02:51:56;10.07;93.84
67279;DHT22;54193;53.746;10.058;2023-03-23T02:54:44;10.05;93.75
67279;DHT22;54193;53.746;10.058;2023-03-23T02:57:31;10.06;93.82
67279;DHT22;54193;53.746;10.058;2023-03-23T03:00:17;10.07;93.83
67279;DHT22;54193;53.746;10.058;2023-03-23T03:03:05;10.05;93.75
67279;DHT22;54193;53.746;10.058;2023-03-23T03:06:10;10.07;93.80
67279;DHT22;54193;53.746;10.058;2023-03-23T03:09:05;10.05;93.80
67279;DHT22;54193;53.746;10.058;2023-03-23T03:11:58;10.07;93.80
67279;DHT22;54193;53.746;10.058;2023-03-23T03:15:11;10.07;93.75
67279;DHT22;54193;53.746;10.058;2023-03-23T03:18:28;10.10;93.82
67279;DHT22;54193;53.746;10.058;2023-03-23T03:21:15;10.12;93.85
67279;DHT22;54193;53.746;10.058;2023-03-23T03:24:03;10.09;93.78
67279;DHT22;54193;53.746;10.058;2023-03-23T03:26:51;10.10;93.62
67279;DHT22;54193;53.746;10.058;2023-03-23T03:29:40;10.06;93.74
67279;DHT22;54193;53.746;10.058;2023-03-23T03:32:31;10.03;93.85
67279;DHT22;54193;53.746;10.058;2023-03-23T03:35:22;10.03;93.86
67279;DHT22;54193;53.746;10.058;2023-03-23T03:38:09;9.98;93.80
67279;DHT22;54193;53.746;10.058;2023-03-23T03:40:56;10.02;93.95
67279;DHT22;54193;53.746;10.058;2023-03-23T03:43:42;9.98;93.93
67279;DHT22;54193;53.746;10.058;2023-03-23T03:46:29;10.03;93.93
67279;DHT22;54193;53.746;10.058;2023-03-23T03:49:16;10.00;93.73
67279;DHT22;54193;53.746;10.058;2023-03-23T03:52:02;10.00;93.91
67279;DHT22;54193;53.746;10.058;2023-03-23T03:54:47;10.06;93.72
67279;DHT22;54193;53.746;10.058;2023-03-23T03:57:34;10.05;93.77
67279;DHT22;54193;53.746;10.058;2023-03-23T04:00:20;10.05;93.67
67279;DHT22;54193;53.746;10.058;2023-03-23T04:03:06;10.03;93.73
67279;DHT22;54193;53.746;10.058;2023-03-23T04:05:56;10.07;93.78
67279;DHT22;54193;53.746;10.058;2023-03-23T04:08:41;10.06;93.64
67279;DHT22;54193;53.746;10.058;2023-03-23T04:11:28;10.12;93.63
67279;DHT22;54193;53.746;10.058;2023-03-23T04:14:14;10.13;93.27
67279;DHT22;54193;53.746;10.058;2023-03-23T04:16:59;10.09;93.35
67279;DHT22;54193;53.746;10.058;2023-03-23T04:19:45;10.09;93.36
67279;DHT22;54193;53.746;10.058;2023-03-23T04:22:31;10.02;93.31
67279;DHT22;54193;53.746;10.058;2023-03-23T04:25:19;10.06;93.23
67279;DHT22;54193;53.746;10.058;2023-03-23T04:28:07;10.03;93.08
67279;DHT22;54193;53.746;10.058;2023-03-23T04:30:55;10.07;93.16
67279;DHT22;54193;53.746;10.058;2023-03-23T04:33:41;10.05;92.98
67279;DHT22;54193;53.746;10.058;2023-03-23T04:36:27;10.02;92.97
67279;DHT22;54193;53.746;10.058;2023-03-23T04:39:14;10.10;92.77
67279;DHT22;54193;53.746;10.058;2023-03-23T04:42:01;10.09;92.73
67279;DHT22;54193;53.746;10.058;2023-03-23T04:44:47;10.14;92.76
67279;DHT22;54193;53.746;10.058;2023-03-23T04:47:40;10.14;92.60
67279;DHT22;54193;53.746;10.058;2023-03-23T04:50:28;10.20;92.61
67279;DHT22;54193;53.746;10.058;2023-03-23T04:53:16;10.20;92.66
67279;DHT22;54193;53.746;10.058;2023-03-23T04:56:03;10.16;92.71
67279;DHT22;54193;53.746;10.058;2023-03-23T04:58:49;10.13;92.80
67279;DHT22;54193;53.746;10.058;2023-03-23T05:01:35;10.14;92.83
67279;DHT22;54193;53.746;10.058;2023-03-23T05:04:23;10.20;92.80
67279;DHT22;54193;53.746;10.058;2023-03-23T05:07:11;10.23;92.78
67279;DHT22;54193;53.746;10.058;2023-03-23T05:09:57;10.23;92.62
67279;DHT22;54193;53.746;10.058;2023-03-23T05:12:43;10.27;92.74
67279;DHT22;54193;53.746;10.058;2023-03-23T05:15:29;10.24;92.69
67279;DHT22;54193;53.746;10.058;2023-03-23T05:18:15;10.27;92.54
67279;DHT22;54193;53.746;10.058;2023-03-23T05:21:02;10.27;92.32
67279;DHT22;54193;53.746;10.058;2023-03-23T05:23:48;10.29;92.38
67279;DHT22;54193;53.746;10.058;2023-03-23T05:26:40;10.23;92.34
67279;DHT22;54193;53.746;10.058;2023-03-23T05:29:26;10.26;92.36
67279;DHT22;54193;53.746;10.058;2023-03-23T05:32:12;10.26;92.16
67279;DHT22;54193;53.746;10.058;2023-03-23T05:34:58;10.29;92.35
67279;DHT22;54193;53.746;10.058;2023-03-23T05:37:44;10.26;92.28
67279;DHT22;54193;53.746;10.058;2023-03-23T05:40:30;10.23;92.09
67279;DHT22;54193;53.746;10.058;2023-03-23T05:43:16;10.24;92.03
67279;DHT22;54193;53.746;10.058;2023-03-23T05:46:01;10.29;92.06
67279;DHT22;54193;53.746;10.058;2023-03-23T05:48:48;10.27;92.07
67279;DHT22;54193;53.746;10.058;2023-03-23T05:51:33;10.30;92.01
67279;DHT22;54193;53.746;10.058;2023-03-23T05:54:20;10.29;91.86
67279;DHT22;54193;53.746;10.058;2023-03-23T05:57:05;10.26;91.89
67279;DHT22;54193;53.746;10.058;2023-03-23T05:59:51;10.27;91.87
67279;DHT22;54193;53.746;10.058;2023-03-23T06:02:37;10.21;92.05
67279;DHT22;54193;53.746;10.058;2023-03-23T06:05:23;10.21;91.98
67279;DHT22;54193;53.746;10.058;2023-03-23T06:08:11;10.17;92.10
67279;DHT22;54193;53.746;10.058;2023-03-23T06:10:57;10.17;92.02
67279;DHT22;54193;53.746;10.058;2023-03-23T06:13:43;10.17;92.13
67279;DHT22;54193;53.746;10.058;2023-03-23T06:16:29;10.13;92.04
67279;DHT22;54193;53.746;10.058;2023-03-23T06:19:15;10.14;92.10
67279;DHT22;54193;53.746;10.058;2023-03-23T06:22:00;10.12;91.99
67279;DHT22;54193;53.746;10.058;2023-03-23T06:24:47;10.12;92.12
67279;DHT22;54193;53.746;10.058;2023-03-23T06:27:34;10.16;92.16
67279;DHT22;54193;53.746;10.058;2023-03-23T06:30:20;10.26;92.07
67279;DHT22;54193;53.746;10.058;2023-03-23T06:33:06;10.34;91.72
67279;DHT22;54193;53.746;10.058;2023-03-23T06:35:54;10.33;91.60
67279;DHT22;54193;53.746;10.058;2023-03-23T06:38:41;10.33;91.63
67279;DHT22;54193;53.746;10.058;2023-03-23T06:41:27;10.38;91.58
67279;DHT22;54193;53.746;10.058;2023-03-23T06:44:12;10.41;91.24
67279;DHT22;54193;53.746;10.058;2023-03-23T06:46:58;10.54;90.90
67279;DHT22;54193;53.746;10.058;2023-03-23T06:49:44;10.58;90.88
67279;DHT22;54193;53.746;10.058;2023-03-23T06:52:29;10.82;90.66
67279;DHT22;54193;53.746;10.058;2023-03-23T06:55:16;10.96;90.03
67279;DHT22;54193;53.746;10.058;2023-03-23T06:58:02;11.05;89.86
67279;DHT22;54193;53.746;10.058;2023-03-23T07:00:48;11.10;89.73
67279;DHT22;54193;53.746;10.058;2023-03-23T07:03:34;11.16;89.31
67279;DHT22;54193;53.746;10.058;2023-03-23T07:06:20;11.18;89.01
67279;DHT22;54193;53.746;10.058;2023-03-23T07:09:06;11.12;89.34
67279;DHT22;54193;53.746;10.058;2023-03-23T07:11:52;11.18;89.59
67279;DHT22;54193;53.746;10.058;2023-03-23T07:14:38;11.27;88.84
67279;DHT22;54193;53.746;10.058;2023-03-23T07:17:25;11.31;88.63
67279;DHT22;54193;53.746;10.058;2023-03-23T07:20:11;11.37;88.55
67279;DHT22;54193;53.746;10.058;2023-03-23T07:22:56;11.51;88.08
67279;DHT22;54193;53.746;10.058;2023-03-23T07:25:43;11.51;87.98
67279;DHT22;54193;53.746;10.058;2023-03-23T07:28:29;11.68;87.83
67279;DHT22;54193;53.746;10.058;2023-03-23T07:31:15;11.81;87.29
67279;DHT22;54193;53.746;10.058;2023-03-23T07:34:01;11.75;86.93
67279;DHT22;54193;53.746;10.058;2023-03-23T07:36:48;11.67;87.33
67279;DHT22;54193;53.746;10.058;2023-03-23T07:39:36;11.54;87.85
67279;DHT22;54193;53.746;10.058;2023-03-23T07:42:22;11.46;88.30
67279;DHT22;54193;53.746;10.058;2023-03-23T07:45:09;11.31;88.47
67279;DHT22;54193;53.746;10.058;2023-03-23T07:47:55;11.27;88.88
67279;DHT22;54193;53.746;10.058;2023-03-23T07:50:41;11.16;89.27
67279;DHT22;54193;53.746;10.058;2023-03-23T07:53:27;11.12;89.84
67279;DHT22;54193;53.746;10.058;2023-03-23T07:56:12;11.10;89.64
67279;DHT22;54193;53.746;10.058;2023-03-23T07:59:00;11.09;88.04
67279;DHT22;54193;53.746;10.058;2023-03-23T08:01:46;11.03;88.27
67279;DHT22;54193;53.746;10.058;2023-03-23T08:04:31;10.92;88.64
67279;DHT22;54193;53.746;10.058;2023-03-23T08:07:22;10.85;88.58
67279;DHT22;54193;53.746;10.058;2023-03-23T08:10:09;10.86;89.33
67279;DHT22;54193;53.746;10.058;2023-03-23T08:12:56;10.82;88.96
67279;DHT22;54193;53.746;10.058;2023-03-23T08:15:42;10.82;89.16
67279;DHT22;54193;53.746;10.058;2023-03-23T08:18:28;10.82;88.43
67279;DHT22;54193;53.746;10.058;2023-03-23T08:21:14;10.85;88.33
67279;DHT22;54193;53.746;10.058;2023-03-23T08:24:00;10.82;88.10
67279;DHT22;54193;53.746;10.058;2023-03-23T08:26:46;10.76;87.49
67279;DHT22;54193;53.746;10.058;2023-03-23T08:29:32;10.69;87.07
67279;DHT22;54193;53.746;10.058;2023-03-23T08:32:18;10.69;86.79
67279;DHT22;54193;53.746;10.058;2023-03-23T08:35:04;10.72;86.89
67279;DHT22;54193;53.746;10.058;2023-03-23T08:37:50;10.76;86.92
67279;DHT22;54193;53.746;10.058;2023-03-23T08:40:38;10.72;86.90
67279;DHT22;54193;53.746;10.058;2023-03-23T08:43:24;10.79;87.27
67279;DHT22;54193;53.746;10.058;2023-03-23T08:46:10;10.85;86.88
67279;DHT22;54193;53.746;10.058;2023-03-23T08:48:56;10.88;86.84
67279;DHT22;54193;53.746;10.058;2023-03-23T08:51:42;10.96;86.74
67279;DHT22;54193;53.746;10.058;2023-03-23T08:54:29;10.99;87.27
67279;DHT22;54193;53.746;10.058;2023-03-23T08:57:15;10.98;87.05
67279;DHT22;54193;53.746;10.058;2023-03-23T09:00:03;11.10;87.13
67279;DHT22;54193;53.746;10.058;2023-03-23T09:02:59;11.09;87.57
67279;DHT22;54193;53.746;10.058;2023-03-23T09:05:45;11.18;87.36
67279;DHT22;54193;53.746;10.058;2023-03-23T09:08:31;11.30;87.31
67279;DHT22;54193;53.746;10.058;2023-03-23T09:11:17;11.36;87.23
67279;DHT22;54193;53.746;10.058;2023-03-23T09:14:04;11.51;87.15
67279;DHT22;54193;53.746;10.058;2023-03-23T09:16:50;11.47;86.57
67279;DHT22;54193;53.746;10.058;2023-03-23T09:19:36;11.46;86.65
67279;DHT22;54193;53.746;10.058;2023-03-23T09:22:22;11.46;86.70
67279;DHT22;54193;53.746;10.058;2023-03-23T09:25:09;12.20;85.62
67279;DHT22;54193;53.746;10.058;2023-03-23T09:27:57;12.83;82.76
67279;DHT22;54193;53.746;10.058;2023-03-23T09:30:44;12.63;83.45
67279;DHT22;54193;53.746;10.058;2023-03-23T09:33:30;12.50;83.18
67279;DHT22;54193;53.746;10.058;2023-03-23T09:36:19;12.60;83.64
67279;DHT22;54193;53.746;10.058;2023-03-23T09:39:06;12.58;83.86
67279;DHT22;54193;53.746;10.058;2023-03-23T09:42:31;13.70;81.21
67279;DHT22;54193;53.746;10.058;2023-03-23T09:48:37;14.59;78.16
67279;DHT22;54193;53.746;10.058;2023-03-23T09:51:47;14.66;78.03
67279;DHT22;54193;53.746;10.058;2023-03-23T09:54:39;14.24;77.90
67279;DHT22;54193;53.746;10.058;2023-03-23T09:57:28;15.40;75.42
67279;DHT22;54193;53.746;10.058;2023-03-23T10:00:20;15.83;74.28
67279;DHT22;54193;53.746;10.058;2023-03-23T10:03:16;15.49;72.68
67279;DHT22;54193;53.746;10.058;2023-03-23T10:06:02;15.55;73.35
67279;DHT22;54193;53.746;10.058;2023-03-23T10:08:54;14.91;73.67
67279;DHT22;54193;53.746;10.058;2023-03-23T10:12:00;14.47;75.75
67279;DHT22;54193;53.746;10.058;2023-03-23T10:15:11;14.43;75.99
67279;DHT22;54193;53.746;10.058;2023-03-23T10:18:25;14.11;76.04
67279;DHT22;54193;53.746;10.058;2023-03-23T10:21:14;13.94;77.29
67279;DHT22;54193;53.746;10.058;2023-03-23T10:24:04;13.90;76.73
67279;DHT22;54193;53.746;10.058;2023-03-23T10:27:05;13.66;77.81
67279;DHT22;54193;53.746;10.058;2023-03-23T10:29:57;13.94;78.46
67279;DHT22;54193;53.746;10.058;2023-03-23T10:32:51;14.26;76.67
67279;DHT22;54193;53.746;10.058;2023-03-23T10:35:43;14.43;75.13
67279;DHT22;54193;53.746;10.058;2023-03-23T10:38:37;14.33;74.85
67279;DHT22;54193;53.746;10.058;2023-03-23T10:41:24;14.18;73.81
67279;DHT22;54193;53.746;10.058;2023-03-23T10:44:12;13.67;73.95
67279;DHT22;54193;53.746;10.058;2023-03-23T10:47:04;13.49;73.86
67279;DHT22;54193;53.746;10.058;2023-03-23T10:50:02;13.33;74.17
67279;DHT22;54193;53.746;10.058;2023-03-23T10:52:52;13.35;73.90
67279;DHT22;54193;53.746;10.058;2023-03-23T10:55:40;13.50;75.98
67279;DHT22;54193;53.746;10.058;2023-03-23T10:58:34;13.57;76.02
67279;DHT22;54193;53.746;10.058;2023-03-23T11:01:29;13.36;74.65
67279;DHT22;54193;53.746;10.058;2023-03-23T11:04:17;13.33;74.20
67279;DHT22;54193;53.746;10.058;2023-03-23T11:07:03;13.32;71.15
67279;DHT22;54193;53.746;10.058;2023-03-23T11:09:54;13.29;70.61
67279;DHT22;54193;53.746;10.058;2023-03-23T11:12:44;13.19;70.75
67279;DHT22;54193;53.746;10.058;2023-03-23T11:15:34;13.20;70.58
67279;DHT22;54193;53.746;10.058;2023-03-23T11:18:42;13.23;70.79
67279;DHT22;54193;53.746;10.058;2023-03-23T11:21:28;13.40;71.26
67279;DHT22;54193;53.746;10.058;2023-03-23T11:24:14;13.27;70.79
67279;DHT22;54193;53.746;10.058;2023-03-23T11:27:00;13.08;71.55
67279;DHT22;54193;53.746;10.058;2023-03-23T11:30:01;13.19;72.53
67279;DHT22;54193;53.746;10.058;2023-03-23T11:32:54;13.15;73.01
67279;DHT22;54193;53.746;10.058;2023-03-23T11:35:44;13.19;74.82
67279;DHT22;54193;53.746;10.058;2023-03-23T11:38:32;13.06;75.56
67279;DHT22;54193;53.746;10.058;2023-03-23T11:41:19;12.99;76.47
67279;DHT22;54193;53.746;10.058;2023-03-23T11:44:10;13.06;76.38
67279;DHT22;54193;53.746;10.058;2023-03-23T11:47:26;13.36;75.86
67279;DHT22;54193;53.746;10.058;2023-03-23T11:50:29;13.54;73.94
67279;DHT22;54193;53.746;10.058;2023-03-23T11:53:25;13.70;72.33
67279;DHT22;54193;53.746;10.058;2023-03-23T11:56:32;14.02;72.34
67279;DHT22;54193;53.746;10.058;2023-03-23T11:59:35;14.32;70.83
67279;DHT22;54193;53.746;10.058;2023-03-23T12:02:51;14.33;69.03
67279;DHT22;54193;53.746;10.058;2023-03-23T12:11:51;13.64;69.79
67279;DHT22;54193;53.746;10.058;2023-03-23T12:21:37;13.39;71.02
67279;DHT22;54193;53.746;10.058;2023-03-23T12:27:37;13.63;70.55
67279;DHT22;54193;53.746;10.058;2023-03-23T12:36:30;13.52;71.33
67279;DHT22;54193;53.746;10.058;2023-03-23T12:48:44;14.28;69.84
67279;DHT22;54193;53.746;10.058;2023-03-23T12:51:42;14.26;70.48
67279;DHT22;54193;53.746;10.058;2023-03-23T12:54:38;14.14;71.89
67279;DHT22;54193;53.746;10.058;2023-03-23T12:57:53;13.85;72.14
67279;DHT22;54193;53.746;10.058;2023-03-23T13:06:40;13.82;73.88
67279;DHT22;54193;53.746;10.058;2023-03-23T13:12:24;13.98;73.73
67279;DHT22;54193;53.746;10.058;2023-03-23T13:21:41;13.71;75.03
67279;DHT22;54193;53.746;10.058;2023-03-23T13:24:31;13.85;75.56
67279;DHT22;54193;53.746;10.058;2023-03-23T13:27:26;14.05;74.60
67279;DHT22;54193;53.746;10.058;2023-03-23T13:30:20;14.22;74.10
67279;DHT22;54193;53.746;10.058;2023-03-23T13:33:11;14.07;74.77
67279;DHT22;54193;53.746;10.058;2023-03-23T13:36:08;14.00;75.57
67279;DHT22;54193;53.746;10.058;2023-03-23T13:38:55;13.57;78.45
67279;DHT22;54193;53.746;10.058;2023-03-23T13:47:40;11.40;79.39
67279;DHT22;54193;53.746;10.058;2023-03-23T13:50:28;10.99;82.17
67279;DHT22;54193;53.746;10.058;2023-03-23T13:56:20;10.48;83.83
67279;DHT22;54193;53.746;10.058;2023-03-23T13:59:28;10.37;85.20
67279;DHT22;54193;53.746;10.058;2023-03-23T14:02:30;10.32;85.86
67279;DHT22;54193;53.746;10.058;2023-03-23T14:08:22;10.38;86.57
67279;DHT22;54193;53.746;10.058;2023-03-23T14:11:15;10.54;86.90
67279;DHT22;54193;53.746;10.058;2023-03-23T14:14:07;10.71;87.43
67279;DHT22;54193;53.746;10.058;2023-03-23T14:17:18;10.72;87.64
67279;DHT22;54193;53.746;10.058;2023-03-23T14:20:05;10.71;86.56
67279;DHT22;54193;53.746;10.058;2023-03-23T14:22:55;10.81;86.77
67279;DHT22;54193;53.746;10.058;2023-03-23T14:25:41;10.85;86.68
67279;DHT22;54193;53.746;10.058;2023-03-23T14:28:27;11.12;86.70
67279;DHT22;54193;53.746;10.058;2023-03-23T14:31:19;11.51;86.60
67279;DHT22;54193;53.746;10.058;2023-03-23T14:34:14;11.86;86.68
67279;DHT22;54193;53.746;10.058;2023-03-23T14:37:00;12.05;84.98
67279;DHT22;54193;53.746;10.058;2023-03-23T14:39:48;11.98;85.19
67279;DHT22;54193;53.746;10.058;2023-03-23T14:42:36;11.91;84.89
67279;DHT22;54193;53.746;10.058;2023-03-23T14:45:22;11.79;84.90
67279;DHT22;54193;53.746;10.058;2023-03-23T14:48:13;11.73;85.27
67279;DHT22;54193;53.746;10.058;2023-03-23T14:51:03;11.65;83.65
67279;DHT22;54193;53.746;10.058;2023-03-23T14:53:52;11.71;85.29
67279;DHT22;54193;53.746;10.058;2023-03-23T14:56:40;11.73;84.31
67279;DHT22;54193;53.746;10.058;2023-03-23T14:59:26;11.73;83.80
67279;DHT22;54193;53.746;10.058;2023-03-23T15:02:34;11.70;84.24
67279;DHT22;54193;53.746;10.058;2023-03-23T15:05:36;11.77;83.75
67279;DHT22;54193;53.746;10.058;2023-03-23T15:08:29;11.82;83.08
67279;DHT22;54193;53.746;10.058;2023-03-23T15:14:14;11.95;82.58
67279;DHT22;54193;53.746;10.058;2023-03-23T15:17:01;11.96;81.50
67279;DHT22;54193;53.746;10.058;2023-03-23T15:19:47;11.79;81.66
67279;DHT22;54193;53.746;10.058;2023-03-23T15:22:33;11.68;82.20
67279;DHT22;54193;53.746;10.058;2023-03-23T15:25:21;11.61;82.60
67279;DHT22;54193;53.746;10.058;2023-03-23T15:28:16;11.51;83.17
67279;DHT22;54193;53.746;10.058;2023-03-23T15:31:04;11.48;83.05
67279;DHT22;54193;53.746;10.058;2023-03-23T15:33:56;11.65;81.66
67279;DHT22;54193;53.746;10.058;2023-03-23T15:36:42;11.86;81.32
67279;DHT22;54193;53.746;10.058;2023-03-23T15:39:30;11.96;81.39
67279;DHT22;54193;53.746;10.058;2023-03-23T15:42:32;12.05;80.62
67279;DHT22;54193;53.746;10.058;2023-03-23T15:45:26;12.19;80.08
67279;DHT22;54193;53.746;10.058;2023-03-23T15:48:13;12.36;80.07
67279;DHT22;54193;53.746;10.058;2023-03-23T15:50:59;12.29;81.03
67279;DHT22;54193;53.746;10.058;2023-03-23T15:53:50;11.95;81.44
67279;DHT22;54193;53.746;10.058;2023-03-23T15:56:36;11.73;82.30
67279;DHT22;54193;53.746;10.058;2023-03-23T15:59:21;11.53;83.37
67279;DHT22;54193;53.746;10.058;2023-03-23T16:02:16;11.51;83.39
67279;DHT22;54193;53.746;10.058;2023-03-23T16:05:03;11.58;83.40
67279;DHT22;54193;53.746;10.058;2023-03-23T16:07:49;11.63;82.86
67279;DHT22;54193;53.746;10.058;2023-03-23T16:10:35;11.61;82.85
67279;DHT22;54193;53.746;10.058;2023-03-23T16:13:21;11.47;83.12
67279;DHT22;54193;53.746;10.058;2023-03-23T16:16:14;11.41;83.80
67279;DHT22;54193;53.746;10.058;2023-03-23T16:19:01;11.41;84.13
67279;DHT22;54193;53.746;10.058;2023-03-23T16:21:46;11.43;84.73
67279;DHT22;54193;53.746;10.058;2023-03-23T16:24:32;11.34;85.90
67279;DHT22;54193;53.746;10.058;2023-03-23T16:27:34;11.40;86.16
67279;DHT22;54193;53.746;10.058;2023-03-23T16:30:24;11.41;86.92
67279;DHT22;54193;53.746;10.058;2023-03-23T16:33:11;11.18;88.02
67279;DHT22;54193;53.746;10.058;2023-03-23T16:35:57;10.91;87.54
67279;DHT22;54193;53.746;10.058;2023-03-23T16:38:43;10.72;87.68
67279;DHT22;54193;53.746;10.058;2023-03-23T16:41:28;10.57;87.79
67279;DHT22;54193;53.746;10.058;2023-03-23T16:44:15;10.43;87.68
67279;DHT22;54193;53.746;10.058;2023-03-23T16:47:01;10.36;87.40
67279;DHT22;54193;53.746;10.058;2023-03-23T16:49:46;10.33;87.09
67279;DHT22;54193;53.746;10.058;2023-03-23T16:52:33;10.26;87.04
67279;DHT22;54193;53.746;10.058;2023-03-23T16:55:18;10.21;86.91
67279;DHT22;54193;53.746;10.058;2023-03-23T16:58:05;10.12;86.92
67279;DHT22;54193;53.746;10.058;2023-03-23T17:00:51;10.06;87.00
67279;DHT22;54193;53.746;10.058;2023-03-23T17:03:38;9.98;87.31
67279;DHT22;54193;53.746;10.058;2023-03-23T17:06:24;9.89;87.44
67279;DHT22;54193;53.746;10.058;2023-03-23T17:09:09;9.88;87.52
67279;DHT22;54193;53.746;10.058;2023-03-23T17:11:57;9.78;87.79
67279;DHT22;54193;53.746;10.058;2023-03-23T17:14:43;9.72;87.89
67279;DHT22;54193;53.746;10.058;2023-03-23T17:17:29;9.63;88.12
67279;DHT22;54193;53.746;10.058;2023-03-23T17:20:15;9.61;88.15
67279;DHT22;54193;53.746;10.058;2023-03-23T17:23:06;9.65;88.22
67279;DHT22;54193;53.746;10.058;2023-03-23T17:25:51;9.62;88.20
67279;DHT22;54193;53.746;10.058;2023-03-23T17:28:38;9.65;88.18
67279;DHT22;54193;53.746;10.058;2023-03-23T17:31:24;9.67;88.14
67279;DHT22;54193;53.746;10.058;2023-03-23T17:34:10;9.65;88.29
67279;DHT22;54193;53.746;10.058;2023-03-23T17:36:56;9.63;88.39
67279;DHT22;54193;53.746;10.058;2023-03-23T17:39:41;9.68;88.34
67279;DHT22;54193;53.746;10.058;2023-03-23T17:42:28;9.75;88.31
67279;DHT22;54193;53.746;10.058;2023-03-23T17:45:14;9.89;87.99
67279;DHT22;54193;53.746;10.058;2023-03-23T17:47:59;9.96;87.81
67279;DHT22;54193;53.746;10.058;2023-03-23T17:50:46;10.00;87.80
67279;DHT22;54193;53.746;10.058;2023-03-23T17:53:34;10.07;87.73
67279;DHT22;54193;53.746;10.058;2023-03-23T17:56:22;10.12;87.98
67279;DHT22;54193;53.746;10.058;2023-03-23T17:59:08;10.06;88.09
67279;DHT22;54193;53.746;10.058;2023-03-23T18:01:53;10.12;87.97
67279;DHT22;54193;53.746;10.058;2023-03-23T18:04:39;10.17;87.75
67279;DHT22;54193;53.746;10.058;2023-03-23T18:07:26;10.13;87.64
67279;DHT22;54193;53.746;10.058;2023-03-23T18:10:12;10.10;87.54
67279;DHT22;54193;53.746;10.058;2023-03-23T18:12:58;10.03;87.67
67279;DHT22;54193;53.746;10.058;2023-03-23T18:15:44;10.00;87.74
67279;DHT22;54193;53.746;10.058;2023-03-23T18:18:30;10.02;87.47
67279;DHT22;54193;53.746;10.058;2023-03-23T18:21:16;9.96;87.49
67279;DHT22;54193;53.746;10.058;2023-03-23T18:24:02;9.90;87.64
67279;DHT22;54193;53.746;10.058;2023-03-23T18:26:48;9.81;87.77
67279;DHT22;54193;53.746;10.058;2023-03-23T18:29:33;9.75;87.84
67279;DHT22;54193;53.746;10.058;2023-03-23T18:32:19;9.68;88.05
67279;DHT22;54193;53.746;10.058;2023-03-23T18:35:07;9.52;88.23
67279;DHT22;54193;53.746;10.058;2023-03-23T18:37:53;9.45;88.61
67279;DHT22;54193;53.746;10.058;2023-03-23T18:40:43;9.35;88.78
67279;DHT22;54193;53.746;10.058;2023-03-23T18:43:28;9.34;88.94
67279;DHT22;54193;53.746;10.058;2023-03-23T18:46:15;9.37;88.97
67279;DHT22;54193;53.746;10.058;2023-03-23T18:49:00;9.33;88.99
67279;DHT22;54193;53.746;10.058;2023-03-23T18:51:46;9.27;89.04
67279;DHT22;54193;53.746;10.058;2023-03-23T18:54:31;9.28;89.07
67279;DHT22;54193;53.746;10.058;2023-03-23T18:57:19;9.30;89.08